Time;durP1;ratioP1;P1;durP2;ratioP2;P2;SDS_P1;SDS_P2;PMS_P1;PMS_P2;Temp;Humidity;BMP_temperature;BMP_pressure;BME280_temperature;BME280_humidity;BME280_pressure;Samples;Min_cycle;Max_cycle;Signal;HPM_P1;HPM_P2
2023/04/20 00:00:16;;;;;;;;;10.00;10.00;;;;;14.23;41.13;100917.81;5003926;28;45395;-81
2023/04/20 00:02:42;;;;;;;;;14.67;13.67;;;;;14.21;41.75;100909.78;5006807;28;45462;-81
2023/04/20 00:05:09;;;;;;;;;9.67;9.67;;;;;14.17;41.54;100908.00;5006120;28;45404;-81
2023/04/20 00:07:35;;;;;;;;;16.33;14.33;;;;;14.10;41.57;100917.78;5003250;28;45483;-80
2023/04/20 00:10:02;;;;;;;;;11.33;11.33;;;;;14.14;41.29;100916.91;5005184;28;45442;-80
2023/04/20 00:12:28;;;;;;;;;10.67;10.67;;;;;14.00;41.15;100913.31;5006694;28;45392;-80
2023/04/20 00:14:54;;;;;;;;;15.00;13.33;;;;;13.95;42.12;100912.38;5005519;28;46309;-80
2023/04/20 00:17:20;;;;;;;;;11.00;11.00;;;;;13.96;41.99;100916.88;5005604;28;45386;-81
2023/04/20 00:19:46;;;;;;;;;10.33;9.67;;;;;13.89;41.79;100917.72;5006446;28;45715;-80
2023/04/20 00:22:13;;;;;;;;;10.33;9.00;;;;;13.92;41.31;100904.38;5006657;28;45364;-81
2023/04/20 00:24:38;;;;;;;;;12.33;12.33;;;;;13.79;42.08;100916.78;5003364;28;48461;-81
2023/04/20 00:27:03;;;;;;;;;15.67;13.33;;;;;13.77;41.94;100908.75;5005029;28;45525;-81
2023/04/20 00:29:29;;;;;;;;;12.67;12.67;;;;;13.71;41.70;100898.03;5004480;28;45525;-81
2023/04/20 00:31:54;;;;;;;;;6.00;5.00;;;;;13.66;41.87;100899.81;5004197;28;45518;-81
2023/04/20 00:34:19;;;;;;;;;14.00;11.00;;;;;13.69;42.33;100904.28;5002919;28;47847;-81
2023/04/20 00:36:45;;;;;;;;;12.00;10.00;;;;;13.68;42.21;100898.03;5001963;28;45536;-82
2023/04/20 00:39:10;;;;;;;;;11.67;11.67;;;;;13.64;41.85;100896.25;5004576;28;45374;-81
2023/04/20 00:41:36;;;;;;;;;11.67;11.00;;;;;13.60;41.92;100889.09;4996531;28;45396;-81
2023/04/20 00:44:01;;;;;;;;;11.67;11.67;;;;;13.62;42.59;100897.13;4989486;28;45488;-81
2023/04/20 00:46:28;;;;;;;;;10.67;10.00;;;;;13.73;42.78;100882.00;4987713;28;45385;-81
2023/04/20 00:48:55;;;;;;;;;15.00;15.00;;;;;13.61;41.70;100874.84;4969015;28;45334;-81
2023/04/20 00:51:21;;;;;;;;;15.67;15.00;;;;;13.59;42.43;100868.59;4968249;28;45387;-80
2023/04/20 00:53:47;;;;;;;;;14.67;13.67;;;;;13.54;42.80;100878.41;4986062;28;45419;-80
2023/04/20 00:56:13;;;;;;;;;12.33;10.00;;;;;13.56;41.85;100876.63;4986846;28;45750;-81
2023/04/20 00:58:41;;;;;;;;;12.67;11.67;;;;;13.55;42.46;100872.16;4968813;28;45469;-81
2023/04/20 01:01:07;;;;;;;;;13.67;11.67;;;;;13.44;42.78;100872.13;4968381;28;45432;-82
2023/04/20 01:03:33;;;;;;;;;9.67;9.67;;;;;13.40;42.34;100865.84;4966596;28;47438;-82
2023/04/20 01:05:59;;;;;;;;;11.33;11.00;;;;;13.38;43.06;100867.63;4967385;28;45906;-82
2023/04/20 01:08:26;;;;;;;;;13.33;13.33;;;;;13.43;42.59;100864.09;4966980;28;45438;-81
2023/04/20 01:10:52;;;;;;;;;12.00;11.00;;;;;13.33;42.80;100864.06;4984422;28;45365;-82
2023/04/20 01:13:17;;;;;;;;;14.00;13.67;;;;;13.22;43.07;100855.06;4966142;28;48462;-81
2023/04/20 01:15:42;;;;;;;;;12.00;10.67;;;;;13.16;43.15;100863.03;4966781;28;45847;-81
2023/04/20 01:18:08;;;;;;;;;16.00;11.33;;;;;13.12;42.92;100847.88;4982877;28;45447;-82
2023/04/20 01:20:33;;;;;;;;;10.00;10.00;;;;;13.17;42.72;100864.84;4967870;28;45360;-82
2023/04/20 01:22:59;;;;;;;;;11.00;10.00;;;;;13.14;43.23;100859.47;4968815;28;47242;-82
2023/04/20 01:25:24;;;;;;;;;11.00;11.00;;;;;13.10;43.81;100849.66;4985291;28;45384;-82
2023/04/20 01:27:50;;;;;;;;;12.67;11.00;;;;;13.09;43.39;100847.84;4968047;28;45564;-82
2023/04/20 01:30:16;;;;;;;;;14.33;13.67;;;;;13.06;43.73;100854.06;4987364;28;45839;-82
2023/04/20 01:32:41;;;;;;;;;6.33;4.67;;;;;12.99;43.99;100846.94;4968479;28;48034;-81
2023/04/20 01:35:07;;;;;;;;;16.67;14.33;;;;;12.97;43.18;100843.38;4967309;28;45780;-82
2023/04/20 01:37:41;;;;;;;;;13.00;12.33;;;;;13.02;43.82;100842.47;4968846;28;45337;-82
2023/04/20 01:40:11;;;;;;;;;12.33;12.00;;;;;12.99;43.93;100841.59;4988770;28;45507;-82
2023/04/20 01:42:36;;;;;;;;;12.67;12.67;;;;;12.91;44.21;100833.53;4971129;28;48420;-82
2023/04/20 01:45:04;;;;;;;;;10.00;10.00;;;;;12.96;44.04;100833.56;4970694;28;45221;-82
2023/04/20 01:47:30;;;;;;;;;16.33;12.67;;;;;12.87;43.88;100831.72;4970251;28;45491;-82
2023/04/20 01:49:56;;;;;;;;;10.00;10.00;;;;;12.89;44.06;100832.63;4974940;28;45443;-82
2023/04/20 01:52:21;;;;;;;;;8.00;7.67;;;;;12.73;43.75;100822.75;5006342;28;47252;-82
2023/04/20 01:54:47;;;;;;;;;11.00;10.00;;;;;12.69;44.28;100827.16;5006271;28;45502;-82
2023/04/20 01:57:12;;;;;;;;;12.00;10.00;;;;;12.65;44.58;100821.81;5007516;28;45439;-82
2023/04/20 01:59:37;;;;;;;;;16.67;13.67;;;;;12.63;44.26;100821.78;5007646;28;45392;-81
2023/04/20 02:02:03;;;;;;;;;13.00;10.67;;;;;12.64;44.54;100825.34;5007265;28;45420;-81
2023/04/20 02:04:28;;;;;;;;;14.67;14.33;;;;;12.64;44.73;100828.00;5007841;28;45312;-81
2023/04/20 02:06:54;;;;;;;;;14.33;11.00;;;;;12.64;44.73;100836.00;5007141;28;45453;-82
2023/04/20 02:09:19;;;;;;;;;10.33;10.00;;;;;12.58;44.46;100826.19;5008441;28;44783;-82
2023/04/20 02:11:46;;;;;;;;;10.33;10.33;;;;;12.60;44.64;100828.00;5005806;28;47989;-82
2023/04/20 02:14:11;;;;;;;;;10.67;10.00;;;;;12.49;44.83;100829.69;5007770;28;44725;-81
2023/04/20 02:16:37;;;;;;;;;10.00;9.00;;;;;12.44;44.49;100827.84;5008535;28;45466;-82
2023/04/20 02:19:02;;;;;;;;;11.00;11.00;;;;;12.39;44.80;100822.50;5023259;28;45367;-82
2023/04/20 02:21:27;;;;;;;;;14.00;11.67;;;;;12.39;45.14;100830.50;5007829;28;45685;-82
2023/04/20 02:23:54;;;;;;;;;10.00;10.00;;;;;12.50;45.28;100842.16;5006703;28;45827;-82
2023/04/20 02:26:19;;;;;;;;;11.00;9.00;;;;;12.43;45.31;100842.09;5009211;28;45444;-82
2023/04/20 02:28:45;;;;;;;;;9.67;9.00;;;;;12.39;45.48;100839.38;5008555;28;45505;-81
2023/04/20 02:31:11;;;;;;;;;9.33;9.33;;;;;12.32;45.39;100836.66;5007866;28;45489;-80
2023/04/20 02:33:36;;;;;;;;;10.00;10.00;;;;;12.32;45.28;100839.31;5007591;28;45511;-81
2023/04/20 02:36:08;;;;;;;;;11.00;11.00;;;;;12.29;46.01;100833.97;5020122;28;45388;-80
2023/04/20 02:38:33;;;;;;;;;8.33;8.33;;;;;12.26;45.22;100841.94;5010678;28;45763;-80
2023/04/20 02:40:58;;;;;;;;;10.33;9.67;;;;;12.11;45.42;100830.25;5028065;28;45572;-82
2023/04/20 02:43:25;;;;;;;;;10.33;9.33;;;;;12.16;45.76;100833.88;5010130;28;46051;-82
2023/04/20 02:45:50;;;;;;;;;9.33;9.33;;;;;12.07;45.89;100836.44;5005904;28;45802;-82
2023/04/20 02:48:16;;;;;;;;;12.00;10.00;;;;;12.09;45.71;100839.13;5025936;28;44807;-82
2023/04/20 02:50:42;;;;;;;;;7.67;7.67;;;;;12.06;45.87;100847.06;5008259;28;47040;-82
2023/04/20 02:53:07;;;;;;;;;8.67;6.33;;;;;11.96;46.09;100844.34;5007947;28;45977;-82
2023/04/20 02:55:32;;;;;;;;;8.33;8.00;;;;;11.93;46.12;100838.97;5027040;28;45467;-81
2023/04/20 02:57:58;;;;;;;;;13.33;11.00;;;;;11.97;46.06;100837.22;5026491;28;45440;-82
2023/04/20 03:00:23;;;;;;;;;9.33;9.33;;;;;11.97;46.08;100843.44;5008654;28;47007;-81
2023/04/20 03:02:50;;;;;;;;;8.33;8.33;;;;;11.97;45.93;100850.56;5027729;28;45292;-82
2023/04/20 03:05:16;;;;;;;;;11.00;9.67;;;;;11.85;46.57;100845.06;5010295;28;45373;-82
2023/04/20 03:07:41;;;;;;;;;9.33;8.00;;;;;11.77;46.50;100843.19;5008748;28;45875;-82
2023/04/20 03:10:08;;;;;;;;;10.33;10.33;;;;;11.79;46.70;100851.22;5008691;28;47086;-83
2023/04/20 03:12:33;;;;;;;;;9.33;7.67;;;;;11.72;46.38;100842.28;5026640;28;45529;-81
2023/04/20 03:14:59;;;;;;;;;9.00;8.00;;;;;11.71;46.59;100848.47;5009270;28;45367;-81
2023/04/20 03:17:24;;;;;;;;;8.67;8.67;;;;;11.71;46.57;100853.78;5027079;28;45443;-81
2023/04/20 03:19:49;;;;;;;;;8.67;8.67;;;;;11.70;46.51;100854.69;5007931;28;46914;-82
2023/04/20 03:22:18;;;;;;;;;6.67;6.67;;;;;11.63;46.36;100844.81;5009083;28;45456;-82
2023/04/20 03:24:43;;;;;;;;;8.67;8.67;;;;;11.60;46.59;100844.81;5027568;28;45380;-81
2023/04/20 03:27:08;;;;;;;;;9.00;8.00;;;;;11.67;46.49;100851.97;5008148;28;45368;-82
2023/04/20 03:29:34;;;;;;;;;4.00;4.00;;;;;11.64;46.61;100846.63;5025819;28;45891;-82
2023/04/20 03:31:59;;;;;;;;;9.00;8.33;;;;;11.56;46.55;100841.19;5009153;28;44843;-82
2023/04/20 03:34:26;;;;;;;;;9.67;9.00;;;;;11.61;46.74;100842.16;5025908;28;44791;-82
2023/04/20 03:36:52;;;;;;;;;11.00;10.00;;;;;11.44;46.44;100854.38;5006168;28;45561;-81
2023/04/20 03:39:17;;;;;;;;;8.00;6.33;;;;;11.40;46.74;100845.44;5005743;28;48049;-82
2023/04/20 03:41:42;;;;;;;;;10.00;10.00;;;;;11.37;46.56;100845.44;5008051;28;45483;-80
2023/04/20 03:44:08;;;;;;;;;9.00;9.00;;;;;11.31;46.85;100848.03;4999216;28;45416;-81
2023/04/20 03:46:33;;;;;;;;;7.00;7.00;;;;;11.33;46.93;100840.03;5005229;28;45460;-80
2023/04/20 03:48:58;;;;;;;;;4.33;4.33;;;;;11.31;47.01;100837.38;5007165;28;46464;-81
2023/04/20 03:51:24;;;;;;;;;10.00;7.33;;;;;11.30;47.05;100846.22;5007317;28;45474;-81
2023/04/20 03:53:50;;;;;;;;;8.00;7.00;;;;;11.28;47.19;100837.31;5003824;28;45409;-81
2023/04/20 03:56:15;;;;;;;;;7.67;7.67;;;;;11.24;47.19;100837.25;5005630;28;45828;-81
2023/04/20 03:58:41;;;;;;;;;9.67;8.00;;;;;11.24;47.30;100846.13;5005746;28;45445;-82
2023/04/20 04:01:09;;;;;;;;;8.00;8.00;;;;;11.30;46.89;100848.88;5021273;28;45428;-82
2023/04/20 04:03:35;;;;;;;;;8.00;8.00;;;;;11.14;47.05;100842.44;5007361;28;45384;-81
2023/04/20 04:06:02;;;;;;;;;8.00;6.33;;;;;11.14;47.54;100860.19;5005521;28;45482;-81
2023/04/20 04:08:27;;;;;;;;;8.00;8.00;;;;;11.05;47.24;100845.00;5006385;28;47068;-81
2023/04/20 04:10:53;;;;;;;;;7.33;7.33;;;;;11.04;47.57;100853.84;5007024;28;45469;-81
2023/04/20 04:13:18;;;;;;;;;6.33;6.33;;;;;11.02;47.89;100848.50;5007442;28;45532;-80
2023/04/20 04:15:43;;;;;;;;;10.67;8.67;;;;;11.10;47.57;100851.28;5004843;28;45409;-81
2023/04/20 04:18:09;;;;;;;;;9.00;9.00;;;;;11.11;47.70;100860.13;5004979;28;45519;-81
2023/04/20 04:20:34;;;;;;;;;5.33;5.33;;;;;11.06;47.37;100856.53;5007210;28;45388;-79
2023/04/20 04:22:59;;;;;;;;;7.67;7.67;;;;;10.99;47.42;100856.47;5005708;28;45402;-81
2023/04/20 04:25:25;;;;;;;;;7.00;7.00;;;;;10.88;47.66;100858.06;5022183;28;45347;-81
2023/04/20 04:27:50;;;;;;;;;6.67;6.00;;;;;10.88;47.48;100857.16;5007064;28;46276;-81
2023/04/20 04:30:16;;;;;;;;;4.00;4.00;;;;;10.90;47.51;100866.94;5005560;28;45450;-80
2023/04/20 04:32:43;;;;;;;;;11.00;7.00;;;;;10.84;48.14;100865.97;4987730;28;45867;-81
2023/04/20 04:35:09;;;;;;;;;3.67;3.67;;;;;10.84;47.51;100881.94;5008930;28;45439;-81
2023/04/20 04:37:34;;;;;;;;;8.00;8.00;;;;;10.76;47.78;100885.38;5008437;28;47241;-80
2023/04/20 04:40:05;;;;;;;;;10.00;8.33;;;;;10.71;47.60;100884.41;5006371;28;45468;-81
2023/04/20 04:42:30;;;;;;;;;12.00;9.00;;;;;10.70;47.65;100887.03;5004702;28;45463;-80
2023/04/20 04:44:57;;;;;;;;;10.67;6.00;;;;;10.66;47.75;100877.22;5005135;28;45529;-82
2023/04/20 04:47:22;;;;;;;;;10.33;8.00;;;;;10.63;47.71;100882.50;4986469;28;47293;-81
2023/04/20 04:49:48;;;;;;;;;8.00;8.00;;;;;10.59;47.90;100878.91;5003809;28;45724;-81
2023/04/20 04:52:14;;;;;;;;;8.33;6.67;;;;;10.64;47.88;100889.59;5006296;28;45393;-81
2023/04/20 04:54:39;;;;;;;;;11.67;10.00;;;;;10.60;47.91;100892.22;5016495;28;45323;-82
2023/04/20 04:57:05;;;;;;;;;9.00;8.00;;;;;10.56;47.18;100897.44;5007284;28;47093;-82
2023/04/20 04:59:30;;;;;;;;;8.33;7.00;;;;;10.50;47.54;100900.00;5008107;28;45376;-82
2023/04/20 05:05:19;;;;;;;;;7.33;7.33;;;;;10.47;47.78;100900.88;5025843;28;45411;-82
2023/04/20 05:07:44;;;;;;;;;12.33;12.33;;;;;10.53;47.61;100902.75;5026126;28;46566;-81
2023/04/20 05:10:10;;;;;;;;;7.67;6.33;;;;;10.50;47.72;100889.38;5006715;28;45808;-82
2023/04/20 05:12:35;;;;;;;;;9.67;8.00;;;;;10.53;46.95;100908.06;5025833;28;45312;-82
2023/04/20 05:15:01;;;;;;;;;7.33;7.33;;;;;10.51;47.25;100905.38;5026015;28;45349;-81
2023/04/20 05:17:26;;;;;;;;;9.00;7.00;;;;;10.47;47.21;100897.31;5007822;28;47177;-82
2023/04/20 05:19:52;;;;;;;;;9.67;9.67;;;;;10.46;47.12;100899.06;5025947;28;45454;-82
2023/04/20 05:22:17;;;;;;;;;7.00;7.00;;;;;10.49;47.58;100907.09;5007638;28;45788;-82
2023/04/20 05:24:42;;;;;;;;;11.00;8.67;;;;;10.49;46.95;100909.75;5007607;28;45408;-81
2023/04/20 05:27:08;;;;;;;;;12.67;11.33;;;;;10.47;47.30;100919.47;5025922;28;45466;-82
2023/04/20 05:29:34;;;;;;;;;10.00;10.00;;;;;10.50;46.71;100924.88;5008162;28;45607;-81
2023/04/20 05:32:00;;;;;;;;;12.00;8.00;;;;;10.51;46.60;100925.75;5008482;28;45445;-82
2023/04/20 05:34:26;;;;;;;;;7.00;7.00;;;;;10.38;46.54;100911.31;5006731;28;45543;-83
2023/04/20 05:36:53;;;;;;;;;11.67;10.33;;;;;10.41;46.77;100922.03;5003827;28;46981;-83
2023/04/20 05:39:19;;;;;;;;;8.67;7.00;;;;;10.32;46.58;100929.81;5006636;28;45397;-82
2023/04/20 05:41:46;;;;;;;;;7.67;7.00;;;;;10.41;46.42;100914.94;5005147;28;45411;-80
2023/04/20 05:44:11;;;;;;;;;11.00;8.67;;;;;10.40;46.55;100906.94;5005018;28;45554;-82
2023/04/20 05:46:36;;;;;;;;;8.00;8.00;;;;;10.37;46.46;100934.38;5003074;28;45859;-83
2023/04/20 05:49:02;;;;;;;;;7.67;6.33;;;;;10.43;46.95;100912.31;5005232;28;45681;-82
2023/04/20 05:51:32;;;;;;;;;10.33;8.00;;;;;10.48;46.30;100907.94;5004201;28;45676;-83
2023/04/20 05:53:57;;;;;;;;;9.00;9.00;;;;;10.54;46.21;100920.47;5006359;28;45499;-82
2023/04/20 05:56:23;;;;;;;;;7.67;7.67;;;;;10.64;46.96;100908.22;5003873;28;46802;-82
2023/04/20 05:58:48;;;;;;;;;4.00;4.00;;;;;10.72;45.88;100927.88;5005207;28;45374;-83
2023/04/20 06:01:14;;;;;;;;;9.00;8.00;;;;;10.77;45.46;100923.53;4988051;28;45403;-83
2023/04/20 06:03:39;;;;;;;;;8.33;7.67;;;;;10.87;45.94;100917.47;5006793;28;45348;-82
2023/04/20 06:06:05;;;;;;;;;8.33;7.00;;;;;11.06;45.99;100915.97;4986596;28;47159;-83
2023/04/20 06:09:17;;;;;;;;;5.33;5.33;;;;;11.47;46.25;100925.41;4986373;28;45431;-85
2023/04/20 06:11:43;;;;;;;;;8.00;7.33;;;;;11.41;45.10;100921.81;5004111;28;45385;-83
2023/04/20 06:14:10;;;;;;;;;8.33;8.33;;;;;11.41;45.58;100919.16;5004718;28;45340;-83
2023/04/20 06:16:36;;;;;;;;;9.67;9.67;;;;;11.53;44.86;100928.16;5004512;28;47319;-80
2023/04/20 06:19:02;;;;;;;;;11.67;9.67;;;;;11.58;44.48;100918.47;4991022;28;45862;-81
2023/04/20 06:21:27;;;;;;;;;9.00;7.00;;;;;11.61;45.81;100913.16;4990458;28;45521;-80
2023/04/20 06:23:53;;;;;;;;;9.00;9.00;;;;;11.84;45.61;100915.25;5009244;28;45563;-82
2023/04/20 06:26:18;;;;;;;;;11.67;11.33;;;;;11.91;44.23;100903.78;5010466;28;46116;-81
2023/04/20 06:28:46;;;;;;;;;9.67;8.67;;;;;11.87;43.89;100918.81;4993764;28;45433;-80
2023/04/20 06:31:11;;;;;;;;;9.33;9.33;;;;;11.90;45.40;100905.56;4993216;28;45583;-81
2023/04/20 06:33:36;;;;;;;;;12.00;10.67;;;;;12.02;44.55;100912.81;5009432;28;45404;-80
2023/04/20 06:36:06;;;;;;;;;9.33;8.67;;;;;12.21;44.22;100914.78;4994296;28;48401;-81
2023/04/20 06:38:31;;;;;;;;;7.33;7.33;;;;;12.21;44.32;100913.91;4994079;28;46275;-80
2023/04/20 06:41:00;;;;;;;;;14.33;12.00;;;;;12.22;42.95;100915.69;5013624;28;45363;-80
2023/04/20 06:43:26;;;;;;;;;12.67;9.67;;;;;12.27;43.90;100915.72;5012614;28;45531;-80
2023/04/20 06:45:51;;;;;;;;;9.00;8.00;;;;;12.26;43.37;100919.25;5010802;28;46912;-80
2023/04/20 06:48:18;;;;;;;;;8.00;8.00;;;;;12.32;43.25;100914.00;4994100;28;45547;-81
2023/04/20 06:50:48;;;;;;;;;9.33;8.00;;;;;12.42;43.71;100918.53;4993731;28;45211;-81
2023/04/20 06:53:13;;;;;;;;;11.33;9.67;;;;;12.40;44.18;100904.28;5012040;28;45605;-81
2023/04/20 06:55:39;;;;;;;;;9.67;9.67;;;;;12.59;44.07;100910.69;4993815;28;46845;-82
2023/04/20 06:58:04;;;;;;;;;14.67;13.00;;;;;12.50;42.83;100911.53;5013636;28;45531;-82
2023/04/20 07:00:31;;;;;;;;;9.00;9.00;;;;;12.60;43.63;100915.13;4995625;28;45512;-81
2023/04/20 07:02:57;;;;;;;;;11.67;9.67;;;;;12.58;43.36;100906.22;5000639;28;44862;-81
2023/04/20 07:05:27;;;;;;;;;13.33;12.00;;;;;12.43;43.36;100875.00;5013555;28;46389;-82
2023/04/20 07:07:53;;;;;;;;;11.67;11.67;;;;;12.67;43.80;100892.97;4998534;28;44893;-81
2023/04/20 07:10:18;;;;;;;;;10.00;10.00;;;;;12.87;43.26;100922.50;4995745;28;45477;-82
2023/04/20 07:12:44;;;;;;;;;12.67;12.67;;;;;12.86;43.38;100910.00;5013373;28;44944;-82
2023/04/20 07:15:10;;;;;;;;;11.00;9.00;;;;;12.92;43.24;100920.72;4994360;28;48257;-81
2023/04/20 07:17:36;;;;;;;;;11.67;9.67;;;;;12.92;42.58;100910.06;4979262;28;45476;-83
2023/04/20 07:20:07;;;;;;;;;18.33;13.33;;;;;13.26;42.89;100904.94;4976396;28;44831;-81
2023/04/20 07:22:37;;;;;;;;;13.67;13.33;;;;;13.55;42.09;100906.88;4975610;28;45435;-81
2023/04/20 07:25:07;;;;;;;;;11.67;10.67;;;;;13.56;42.79;100898.00;4976913;28;46140;-82
2023/04/20 07:27:40;;;;;;;;;18.00;14.00;;;;;13.57;41.99;100899.78;4962776;28;45456;-82
2023/04/20 07:30:07;;;;;;;;;12.00;9.00;;;;;13.56;42.38;100904.22;5006637;28;45181;-82
2023/04/20 07:32:44;;;;;;;;;13.67;10.00;;;;;13.45;42.97;100899.72;5007119;28;45591;-81
2023/04/20 07:35:10;;;;;;;;;16.00;13.00;;;;;13.34;43.26;100905.91;4996323;28;47454;-81
2023/04/20 07:37:35;;;;;;;;;12.33;11.67;;;;;13.42;43.45;100907.72;4994326;28;45504;-81
2023/04/20 07:40:05;;;;;;;;;11.00;10.00;;;;;13.43;42.02;100912.19;4987289;28;45687;-82
2023/04/20 07:42:32;;;;;;;;;15.00;12.33;;;;;13.30;42.54;100901.44;4998910;28;45300;-82
2023/04/20 07:44:57;;;;;;;;;16.00;15.00;;;;;13.19;42.40;100909.34;4999388;28;46874;-81
2023/04/20 07:47:23;;;;;;;;;10.67;10.67;;;;;13.12;43.36;100902.19;4997896;28;45309;-81
2023/04/20 07:56:32;;;;;;;;;16.00;12.00;;;;;13.23;43.16;100894.25;5005794;28;45739;-82
2023/04/20 07:58:58;;;;;;;;;14.00;11.33;;;;;13.27;43.85;100890.72;5027248;28;45207;-82
2023/04/20 08:01:37;;;;;;;;;;;;;;;;;;;;;
2023/04/20 08:04:05;;;;;;;;;14.33;14.33;;;;;13.53;42.64;100881.94;5015797;28;67377;-82
2023/04/20 08:06:30;;;;;;;;;17.67;12.33;;;;;13.57;42.46;100895.34;5007938;28;47998;-80
2023/04/20 08:08:57;;;;;;;;;14.00;14.00;;;;;13.61;42.92;100885.53;5005352;28;45577;-83
2023/04/20 08:11:23;;;;;;;;;18.33;15.67;;;;;13.71;43.35;100895.38;4999460;28;45325;-81
2023/04/20 08:13:49;;;;;;;;;16.00;14.33;;;;;13.78;42.66;100889.16;4995419;28;45340;-82
2023/04/20 08:16:18;;;;;;;;;11.00;11.00;;;;;13.79;41.98;100874.94;4995173;28;46560;-81
2023/04/20 08:19:00;;;;;;;;;18.67;15.67;;;;;14.02;42.87;100887.47;4999098;28;45564;-82
2023/04/20 08:21:27;;;;;;;;;11.00;11.00;;;;;14.03;42.46;100870.50;5004487;28;44728;-81
2023/04/20 08:23:53;;;;;;;;;13.33;11.00;;;;;14.06;42.37;100846.47;5013403;28;45644;-81
2023/04/20 08:26:31;;;;;;;;;13.67;11.67;;;;;14.33;40.94;100860.75;4988978;28;46720;-80
2023/04/20 08:28:57;;;;;;;;;13.33;13.33;;;;;14.38;42.50;100870.56;5012544;28;45538;-80
2023/04/20 08:31:22;;;;;;;;;16.33;12.33;;;;;14.29;41.34;100854.50;5019290;28;45575;-81
2023/04/20 08:33:48;;;;;;;;;14.33;12.33;;;;;14.47;40.96;100858.97;5000665;28;45475;-81
2023/04/20 08:36:20;;;;;;;;;15.33;12.00;;;;;14.40;41.43;100865.19;5010224;28;46390;-81
2023/04/20 08:38:53;;;;;;;;;15.67;15.67;;;;;14.34;41.42;100868.78;5007062;28;45518;-82
2023/04/20 08:41:19;;;;;;;;;12.33;12.33;;;;;14.32;40.85;100862.53;5005784;28;44952;-81
2023/04/20 08:43:45;;;;;;;;;15.00;15.00;;;;;14.29;41.82;100858.97;5025397;28;45398;-82
2023/04/20 08:46:11;;;;;;;;;13.00;12.67;;;;;14.38;41.94;100875.00;5004736;28;47646;-82
2023/04/20 08:48:40;;;;;;;;;15.33;13.33;;;;;14.30;41.38;100866.09;5017390;28;45461;-81
2023/04/20 08:51:06;;;;;;;;;15.67;13.00;;;;;14.29;41.05;100872.34;5011580;28;45522;-82
2023/04/20 08:53:32;;;;;;;;;12.67;11.67;;;;;14.25;40.57;100854.50;5021391;28;45476;-82
2023/04/20 08:55:58;;;;;;;;;18.33;18.33;;;;;14.30;40.10;100861.66;5004734;28;46853;-80
2023/04/20 08:58:25;;;;;;;;;14.67;12.67;;;;;14.32;40.92;100849.16;5021059;28;45490;-79
2023/04/20 09:00:51;;;;;;;;;10.33;10.00;;;;;14.43;41.46;100851.84;4996687;28;45422;-80
2023/04/20 09:03:16;;;;;;;;;16.67;14.00;;;;;14.55;40.94;100862.53;4999800;28;45476;-81
2023/04/20 09:05:43;;;;;;;;;16.00;15.00;;;;;14.67;40.36;100861.66;5026216;28;47717;-80
2023/04/20 09:08:12;;;;;;;;;17.00;16.67;;;;;14.52;38.35;100850.94;5021815;28;44729;-82
2023/04/20 09:10:43;;;;;;;;;13.33;12.67;;;;;14.62;38.90;100858.09;4995036;28;45440;-80
2023/04/20 09:13:20;;;;;;;;;12.33;12.33;;;;;14.44;38.87;100837.56;4995234;28;45405;-82
2023/04/20 09:15:46;;;;;;;;;16.00;16.00;;;;;14.38;40.05;100838.47;5033259;28;45327;-81
2023/04/20 09:18:13;;;;;;;;;19.33;15.00;;;;;14.46;38.66;100833.13;5025652;28;45387;-82
2023/04/20 09:20:39;;;;;;;;;16.33;15.33;;;;;14.51;39.97;100833.09;5006046;28;45372;-81
2023/04/20 09:23:16;;;;;;;;;8.67;5.67;;;;;14.48;37.93;100815.28;4995406;28;45579;-80
2023/04/20 09:25:44;;;;;;;;;12.00;11.33;;;;;14.46;38.83;100826.84;5028909;28;45538;-81
2023/04/20 09:28:12;;;;;;;;;12.67;10.67;;;;;14.57;38.87;100825.97;5002885;28;44902;-82
2023/04/20 09:30:49;;;;;;;;;10.00;8.00;;;;;14.63;39.05;100822.41;5009765;28;44830;-81
2023/04/20 09:33:14;;;;;;;;;12.00;11.67;;;;;14.46;37.75;100822.41;4998042;28;45465;-82
2023/04/20 09:35:41;;;;;;;;;9.00;8.33;;;;;14.49;38.49;100806.34;5018855;28;45274;-82
2023/04/20 09:38:08;;;;;;;;;12.33;12.33;;;;;14.53;38.47;100805.44;5001109;28;45473;-82
2023/04/20 09:40:34;;;;;;;;;11.33;11.00;;;;;14.54;38.62;100809.00;4993970;28;44784;-81
2023/04/20 09:43:11;;;;;;;;;9.00;9.00;;;;;14.66;37.65;100800.97;5026622;28;45525;-81
2023/04/20 09:45:37;;;;;;;;;14.33;11.33;;;;;14.53;38.15;100815.25;5024665;28;46770;-83
2023/04/20 09:48:05;;;;;;;;;15.67;11.00;;;;;14.62;38.83;100796.53;5010700;28;45763;-83
2023/04/20 09:50:35;;;;;;;;;16.67;14.67;;;;;14.70;38.64;100792.06;5028131;28;45947;-82
2023/04/20 09:53:01;;;;;;;;;9.33;9.33;;;;;14.70;38.14;100786.69;5002788;28;45193;-81
2023/04/20 09:55:30;;;;;;;;;15.00;12.00;;;;;14.92;39.28;100797.38;5007789;28;46962;-81
2023/04/20 09:57:57;;;;;;;;;12.00;12.00;;;;;14.88;39.33;100788.44;4992631;28;45691;-81
2023/04/20 10:00:23;;;;;;;;;16.33;16.33;;;;;14.87;39.26;100793.81;5006243;28;45402;-80
2023/04/20 10:02:49;;;;;;;;;13.33;10.00;;;;;14.89;40.15;100784.00;5005046;28;45392;-80
2023/04/20 10:05:15;;;;;;;;;13.33;13.33;;;;;14.96;40.11;100800.03;5012707;28;47017;-79
2023/04/20 10:07:43;;;;;;;;;11.33;11.00;;;;;15.11;39.59;100777.66;5020926;28;45668;-81
2023/04/20 10:10:12;;;;;;;;;13.67;11.67;;;;;15.27;39.43;100762.41;5013538;28;45628;-81
2023/04/20 10:12:58;;;;;;;;;10.33;10.33;;;;;15.49;39.08;100752.47;5009638;28;44885;-80
2023/04/20 10:15:39;;;;;;;;;15.00;15.00;;;;;15.67;39.16;100758.59;5020529;28;45387;-81
2023/04/20 10:18:23;;;;;;;;;17.00;13.00;;;;;15.91;39.61;100762.94;5030126;28;45485;-81
2023/04/20 10:20:49;;;;;;;;;13.33;13.33;;;;;15.79;39.11;100754.09;5003384;28;45344;-82
2023/04/20 10:23:17;;;;;;;;;11.33;11.00;;;;;15.65;39.73;100747.00;5030345;28;44861;-80
2023/04/20 10:25:55;;;;;;;;;15.00;15.00;;;;;15.48;39.92;100745.31;5033209;28;45871;-81
2023/04/20 10:28:20;;;;;;;;;13.67;12.00;;;;;15.49;39.37;100775.69;5025851;28;45392;-81
2023/04/20 10:30:52;;;;;;;;;10.67;10.00;;;;;15.52;39.72;100760.47;5027026;28;45353;-80
2023/04/20 10:33:18;;;;;;;;;13.67;13.00;;;;;15.32;39.26;100765.94;5012287;28;45645;-80
2023/04/20 10:35:55;;;;;;;;;11.33;10.00;;;;;15.43;39.19;100751.59;5035037;28;47120;-82
2023/04/20 10:38:46;;;;;;;;;12.33;12.33;;;;;15.45;39.65;100749.81;5015860;28;45315;-80
2023/04/20 10:41:12;;;;;;;;;14.00;12.33;;;;;15.32;40.05;100752.56;5011034;28;45791;-81
2023/04/20 10:43:41;;;;;;;;;11.67;11.67;;;;;15.33;39.89;100765.06;4994254;28;45571;-80
2023/04/20 10:46:33;;;;;;;;;11.00;11.00;;;;;15.52;40.21;100747.09;4995793;28;46922;-81
2023/04/20 10:49:00;;;;;;;;;18.67;13.67;;;;;15.48;39.94;100744.44;5028722;28;45446;-81
2023/04/20 10:51:28;;;;;;;;;16.00;13.00;;;;;15.37;40.12;100737.34;5014851;28;45438;-81
2023/04/20 10:54:07;;;;;;;;;14.33;14.33;;;;;15.27;40.29;100746.34;5013906;28;45450;-80
2023/04/20 10:56:43;;;;;;;;;15.33;13.00;;;;;15.23;40.97;100747.25;5004125;28;46816;-81
2023/04/20 10:59:14;;;;;;;;;13.67;12.33;;;;;15.25;41.23;100737.44;5022525;28;45621;-80
2023/04/20 11:01:40;;;;;;;;;20.00;18.67;;;;;15.05;41.17;100750.91;5022963;28;45506;-81
2023/04/20 11:04:09;;;;;;;;;13.00;13.00;;;;;15.03;41.54;100751.78;5018967;28;45452;-79
2023/04/20 11:06:39;;;;;;;;;14.33;10.67;;;;;14.75;41.62;100723.34;5013301;28;47201;-80
2023/04/20 11:09:28;;;;;;;;;16.33;15.00;;;;;14.85;41.52;100764.38;5012209;28;45518;-79
2023/04/20 11:12:13;;;;;;;;;10.67;10.67;;;;;14.73;41.61;100743.00;5009287;28;45527;-80
2023/04/20 11:15:02;;;;;;;;;17.33;15.67;;;;;14.72;42.20;100743.88;5020171;28;45129;-81
2023/04/20 11:17:36;;;;;;;;;15.33;15.00;;;;;14.66;42.50;100736.75;5021623;28;45994;-82
2023/04/20 11:20:13;;;;;;;;;19.33;12.33;;;;;14.76;42.56;100727.78;5002360;28;45277;-80
2023/04/20 11:22:40;;;;;;;;;16.00;14.33;;;;;14.81;42.53;100725.13;5010582;28;45445;-82
2023/04/20 11:25:08;;;;;;;;;18.00;14.00;;;;;14.89;42.55;100725.09;5015520;28;45498;-82
2023/04/20 11:27:34;;;;;;;;;18.33;17.00;;;;;14.88;42.07;100731.31;5010549;28;47271;-81